AFO weather

Afton Municipal Airport
Afton, Wyoming, United States

Public forecast

Using degrees Fahrenheit for public forecast. Weather courtesy of forecast.io.

Current aviation weather report (METAR) for Afton Municipal Airport

Retrieved 2019/12/12 13:35 UTC (0 seconds ago):

KAFO 121335Z AUTO 13005KT 2 1/2SM -SN BKN016 OVC022 00/M01 A3007 RMK AO2

Closest aviation forecast (TAF) to Afton Municipal Airport

Closest forecast is Miley Memorial Field, 37.5 nm (69.4 km) ESE. Retrieved 2019/12/12 12:34 UTC (46 minutes ago):

TAF KBPI 121132Z 1212/1312 VRB05KT P6SM VCSH SCT025 OVC040 TEMPO 1212/1216 4SM -SN BKN025 FM121600 VRB06KT P6SM VCSH SCT015 OVC025 FM122000 31009KT 3SM -SN SCT015 OVC025 FM130800 31011G20KT 1 1/2SM -SN OVC015